Time;durP1;ratioP1;P1;durP2;ratioP2;P2;SDS_P1;SDS_P2;PMS_P1;PMS_P2;Temp;Humidity;BMP_temperature;BMP_pressure;BME280_temperature;BME280_humidity;BME280_pressure;Samples;Min_cycle;Max_cycle;Signal;HPM_P1;HPM_P2
2022/04/28 00:00:42;;;;;;;;;38.67;33.33;;;;;15.56;45.52;101618.34;5066054;28;45557;-63
2022/04/28 00:03:09;;;;;;;;;36.67;33.33;;;;;15.55;45.74;101616.59;5078446;27;45572;-63
2022/04/28 00:05:35;;;;;;;;;34.00;32.33;;;;;15.53;45.93;101613.16;5078797;27;45584;-63
2022/04/28 00:08:01;;;;;;;;;32.00;30.67;;;;;15.54;45.83;101614.88;5078699;27;45444;-63
2022/04/28 00:10:26;;;;;;;;;40.00;34.00;;;;;15.53;45.25;101618.47;5078603;27;46734;-63
2022/04/28 00:12:52;;;;;;;;;32.33;31.33;;;;;15.45;45.72;101609.97;5078631;27;45543;-63
2022/04/28 00:15:18;;;;;;;;;35.00;32.33;;;;;15.39;45.74;101613.72;5076627;27;45489;-64
2022/04/28 00:17:43;;;;;;;;;36.67;32.00;;;;;15.40;46.28;101612.78;5058250;28;45562;-63
2022/04/28 00:20:09;;;;;;;;;38.00;34.00;;;;;15.31;45.72;101606.97;5057862;28;46210;-63
2022/04/28 00:22:35;;;;;;;;;36.67;32.33;;;;;15.28;46.58;101612.38;5058028;28;45372;-63
2022/04/28 00:25:01;;;;;;;;;34.67;31.67;;;;;15.25;45.82;101608.91;5058228;28;45342;-63
2022/04/28 00:27:26;;;;;;;;;40.33;36.00;;;;;15.29;45.94;101607.03;5057916;28;45427;-63
2022/04/28 00:29:52;;;;;;;;;35.67;32.00;;;;;15.28;46.38;101605.28;5071907;28;45410;-63
2022/04/28 00:32:17;;;;;;;;;35.33;33.33;;;;;15.28;46.13;101607.94;5078284;27;45391;-63
2022/04/28 00:34:43;;;;;;;;;35.00;32.33;;;;;15.29;45.80;101603.53;5078377;27;45684;-63
2022/04/28 00:37:09;;;;;;;;;32.67;30.33;;;;;15.26;46.35;101599.22;5072319;27;45527;-63
2022/04/28 00:39:38;;;;;;;;;34.00;31.33;;;;;15.20;46.07;101597.63;5059224;28;45605;-63
2022/04/28 00:42:08;;;;;;;;;34.33;33.33;;;;;15.12;45.98;101591.75;5078177;27;45436;-65
2022/04/28 00:44:33;;;;;;;;;37.75;33.50;;;;;15.16;45.42;101605.78;5078100;27;45388;-63
2022/04/28 00:46:58;;;;;;;;;35.75;34.00;;;;;15.14;46.02;101602.31;5078088;27;45599;-63
2022/04/28 00:52:08;;;;;;;;;35.50;34.00;;;;;15.05;46.55;101600.91;5057767;28;45513;-63
2022/04/28 00:54:33;;;;;;;;;39.50;35.25;;;;;14.98;46.17;101602.91;5057783;28;45473;-64
2022/04/28 00:57:00;;;;;;;;;34.67;33.33;;;;;14.95;46.11;101594.22;5057764;28;45616;-63
2022/04/28 00:59:29;;;;;;;;;38.25;34.00;;;;;14.93;46.42;101601.34;5057287;28;45574;-63
2022/04/28 01:01:54;;;;;;;;;39.25;34.00;;;;;14.92;46.42;101597.84;5055783;28;45423;-65
2022/04/28 01:04:20;;;;;;;;;36.25;32.75;;;;;14.89;46.55;101592.66;5057612;28;45425;-63
2022/04/28 01:06:45;;;;;;;;;33.25;32.25;;;;;14.91;46.60;101608.47;5057572;28;45512;-63
2022/04/28 01:09:11;;;;;;;;;37.00;33.00;;;;;14.92;46.43;101599.63;5057487;28;45873;-63
2022/04/28 01:11:38;;;;;;;;;40.00;34.00;;;;;14.84;46.64;101602.56;5064444;28;45542;-63
2022/04/28 01:14:03;;;;;;;;;36.33;33.67;;;;;14.83;45.87;101607.91;5077761;27;45381;-63
2022/04/28 01:16:29;;;;;;;;;38.33;33.00;;;;;14.79;45.92;101597.41;5077750;27;45544;-63
2022/04/28 01:18:54;;;;;;;;;38.00;33.50;;;;;14.78;45.90;101598.34;5093322;27;45415;-63
2022/04/28 01:21:20;;;;;;;;;41.75;36.00;;;;;14.77;46.31;101601.91;5077577;27;45410;-63
2022/04/28 01:23:45;;;;;;;;;36.00;33.00;;;;;14.76;46.73;101594.03;5077347;27;45501;-63
2022/04/28 01:26:13;;;;;;;;;36.33;33.00;;;;;14.71;46.77;101588.03;5059376;27;45418;-63
2022/04/28 01:28:38;;;;;;;;;39.50;34.25;;;;;14.75;46.34;101590.53;5057018;28;45616;-63
2022/04/28 01:31:05;;;;;;;;;38.00;33.00;;;;;14.73;46.31;101587.06;5056778;28;45497;-63
2022/04/28 01:33:31;;;;;;;;;34.00;32.00;;;;;14.75;46.11;101587.03;5056870;28;45414;-63
2022/04/28 01:35:56;;;;;;;;;32.67;32.00;;;;;14.76;46.11;101594.88;5057072;28;45434;-62
2022/04/28 01:38:21;;;;;;;;;42.75;34.00;;;;;14.79;46.59;101593.91;5057211;28;45899;-63
2022/04/28 01:40:47;;;;;;;;;41.50;35.25;;;;;14.75;46.41;101590.53;5067968;28;45469;-63
2022/04/28 01:43:12;;;;;;;;;38.75;33.75;;;;;14.74;46.72;101602.00;5077290;27;45603;-63
2022/04/28 01:45:37;;;;;;;;;34.00;32.00;;;;;14.70;46.32;101595.13;5077588;27;45548;-63
2022/04/28 01:48:03;;;;;;;;;38.50;35.00;;;;;14.69;46.64;101592.50;5076989;27;46307;-63
2022/04/28 01:50:29;;;;;;;;;38.50;33.50;;;;;14.70;46.26;101592.47;5071884;27;45415;-63
2022/04/28 01:55:38;;;;;;;;;37.75;33.75;;;;;14.56;46.94;101590.34;5066263;28;45426;-63
2022/04/28 01:58:03;;;;;;;;;38.67;32.33;;;;;14.55;47.05;101598.31;5093634;27;46410;-63
2022/04/28 02:00:29;;;;;;;;;34.00;32.00;;;;;14.54;46.61;101593.94;5067398;27;45307;-62
2022/04/28 02:02:55;;;;;;;;;41.00;34.50;;;;;14.53;46.82;101606.34;5071229;27;45382;-63
2022/04/28 02:05:20;;;;;;;;;34.00;32.00;;;;;14.45;47.14;101610.09;5094253;27;45382;-63
2022/04/28 02:07:45;;;;;;;;;37.33;32.33;;;;;14.46;46.98;101606.56;5056474;28;46564;-63
2022/04/28 02:10:11;;;;;;;;;37.50;34.75;;;;;14.48;46.90;101604.69;5056952;28;45375;-63
2022/04/28 02:12:37;;;;;;;;;36.67;32.33;;;;;14.51;47.20;101604.63;5056840;27;45453;-62
2022/04/28 02:15:03;;;;;;;;;33.75;32.00;;;;;14.51;46.82;101604.63;5058278;28;45422;-62
2022/04/28 02:17:29;;;;;;;;;40.00;34.50;;;;;14.47;47.21;101606.50;5062955;28;45518;-62
2022/04/28 02:19:54;;;;;;;;;41.25;36.50;;;;;14.46;47.17;101602.13;5061552;28;45968;-63
2022/04/28 02:22:20;;;;;;;;;35.33;32.00;;;;;14.46;46.99;101604.78;5068202;27;45484;-63
2022/04/28 02:24:50;;;;;;;;;34.25;33.25;;;;;14.45;46.79;101607.47;5059621;28;45596;-61
2022/04/28 02:27:16;;;;;;;;;35.00;32.75;;;;;14.43;47.28;101611.97;5074008;27;46199;-61
2022/04/28 02:29:42;;;;;;;;;34.75;33.25;;;;;14.30;47.44;101609.75;5076111;28;45409;-61
2022/04/28 02:32:07;;;;;;;;;33.75;32.75;;;;;14.19;47.73;101611.91;5092069;27;45384;-61
2022/04/28 02:34:34;;;;;;;;;34.50;32.00;;;;;14.19;47.40;101606.59;5076253;28;45474;-61
2022/04/28 02:37:01;;;;;;;;;38.00;34.25;;;;;14.14;47.61;101622.63;5075511;27;45517;-62
2022/04/28 02:39:26;;;;;;;;;37.00;32.00;;;;;14.15;48.14;101627.00;5075053;27;45472;-62
2022/04/28 02:41:53;;;;;;;;;33.00;32.50;;;;;14.14;47.53;101621.78;5075914;27;45412;-63
2022/04/28 02:44:18;;;;;;;;;43.50;35.75;;;;;14.18;47.76;101615.44;5076146;27;45563;-62
2022/04/28 02:46:45;;;;;;;;;39.00;35.00;;;;;14.16;47.32;101614.66;5075529;27;45431;-62
2022/04/28 02:49:11;;;;;;;;;36.75;31.75;;;;;14.22;47.57;101622.38;5075951;27;45491;-61
2022/04/28 02:51:36;;;;;;;;;36.00;32.75;;;;;14.11;47.83;101617.44;5076000;27;45373;-61
2022/04/28 02:54:03;;;;;;;;;37.00;33.00;;;;;14.04;47.85;101615.06;5074995;27;45427;-63
2022/04/28 02:56:28;;;;;;;;;35.33;33.00;;;;;14.05;48.40;101616.75;5075674;27;45513;-63
2022/04/28 02:58:54;;;;;;;;;34.75;33.75;;;;;14.01;48.02;101620.44;5075834;27;45512;-61
2022/04/28 03:01:22;;;;;;;;;35.00;33.50;;;;;14.00;48.42;101621.38;5075760;27;45556;-63
2022/04/28 03:03:48;;;;;;;;;36.00;34.00;;;;;13.99;47.94;101620.47;5075580;27;45342;-62
2022/04/28 03:11:41;;;;;;;;;38.50;35.00;;;;;13.91;48.33;101626.03;5075440;28;45384;-62
2022/04/28 03:14:08;;;;;;;;;35.00;33.00;;;;;13.87;48.35;101635.00;5075324;27;45619;-62
2022/04/28 03:16:33;;;;;;;;;32.50;29.75;;;;;13.83;48.55;101635.13;5075366;27;45415;-62
2022/04/28 03:18:59;;;;;;;;;38.00;32.33;;;;;13.81;48.75;101629.91;5075249;27;45351;-62
2022/04/28 03:21:24;;;;;;;;;34.75;32.75;;;;;13.75;48.46;101635.38;5075316;27;45450;-62
2022/04/28 03:23:49;;;;;;;;;32.50;31.50;;;;;13.72;48.90;101635.47;5078803;27;45357;-62
2022/04/28 03:26:14;;;;;;;;;39.67;34.67;;;;;13.70;48.38;101632.91;5082079;27;45342;-62
2022/04/28 03:28:40;;;;;;;;;33.75;32.75;;;;;13.73;48.92;101629.28;5082106;27;45426;-62
2022/04/28 03:31:06;;;;;;;;;34.75;32.00;;;;;13.76;48.71;101628.31;5080793;28;45418;-62
2022/04/28 03:33:32;;;;;;;;;31.00;28.50;;;;;13.79;48.45;101641.44;5082342;28;45647;-62
2022/04/28 03:35:58;;;;;;;;;34.50;32.50;;;;;13.74;48.44;101636.28;5080274;28;45439;-63
2022/04/28 03:38:24;;;;;;;;;34.25;33.00;;;;;13.74;48.42;101635.44;5081740;27;45435;-62
2022/04/28 03:40:49;;;;;;;;;34.25;29.25;;;;;13.66;48.31;101633.88;5081754;28;45438;-61
2022/04/28 03:43:14;;;;;;;;;26.50;25.50;;;;;13.68;48.65;101641.78;5081851;27;45472;-62
2022/04/28 03:45:41;;;;;;;;;34.50;32.25;;;;;13.60;48.93;101634.09;5081786;27;45420;-62
2022/04/28 03:48:10;;;;;;;;;36.25;32.00;;;;;13.61;48.78;101633.16;5081787;27;45372;-62
2022/04/28 03:50:37;;;;;;;;;36.00;32.25;;;;;13.58;49.10;101625.34;5081715;27;45425;-62
2022/04/28 03:53:03;;;;;;;;;35.75;33.00;;;;;13.55;49.41;101638.66;5081935;27;45459;-63
2022/04/28 03:55:29;;;;;;;;;36.75;33.00;;;;;13.54;49.23;101636.94;5081548;27;45473;-61
2022/04/28 03:57:54;;;;;;;;;35.75;30.25;;;;;13.54;49.61;101641.34;5081431;28;45509;-61
2022/04/28 04:00:20;;;;;;;;;33.50;30.00;;;;;13.47;49.16;101630.97;5081958;27;45528;-61
2022/04/28 04:02:47;;;;;;;;;37.00;35.00;;;;;13.46;49.77;101639.81;5081379;27;45635;-61
2022/04/28 04:05:13;;;;;;;;;37.75;35.00;;;;;13.40;49.66;101631.19;5081516;28;45400;-62
2022/04/28 04:07:38;;;;;;;;;33.50;32.00;;;;;13.43;49.67;101654.88;5081314;27;45404;-62
2022/04/28 04:10:07;;;;;;;;;43.00;35.50;;;;;13.42;49.73;101651.38;5081661;28;45450;-62
2022/04/28 04:12:35;;;;;;;;;36.00;33.25;;;;;13.45;49.48;101640.69;5081565;27;45418;-62
2022/04/28 04:15:00;;;;;;;;;29.75;28.00;;;;;13.40;49.86;101650.53;5081313;27;46098;-62
2022/04/28 04:17:26;;;;;;;;;36.25;33.00;;;;;13.45;49.33;101646.00;5081118;28;45410;-62
2022/04/28 04:19:51;;;;;;;;;40.00;35.00;;;;;13.45;49.53;101643.34;5081364;27;45450;-61
2022/04/28 04:22:17;;;;;;;;;37.75;35.00;;;;;13.46;49.68;101652.16;5081558;27;45551;-67
2022/04/28 04:24:42;;;;;;;;;42.75;36.50;;;;;13.44;49.60;101654.84;5081154;27;45362;-62
2022/04/28 04:27:09;;;;;;;;;33.75;33.00;;;;;13.40;49.91;101654.97;5081438;27;45390;-62
2022/04/28 04:29:37;;;;;;;;;40.00;34.50;;;;;13.41;49.42;101657.59;5081615;27;45439;-62
2022/04/28 04:32:18;;;;;;;;;46.25;35.75;;;;;13.46;49.63;101665.38;5081049;27;45485;-62
2022/04/28 04:34:45;;;;;;;;;43.00;36.00;;;;;13.45;49.73;101666.28;5078986;27;45511;-62
2022/04/28 04:37:11;;;;;;;;;44.00;37.00;;;;;13.41;49.44;101668.16;5077872;27;45413;-61
2022/04/28 04:39:37;;;;;;;;;38.75;35.25;;;;;13.36;49.76;101671.84;5078005;27;46182;-61
2022/04/28 04:42:03;;;;;;;;;36.50;34.50;;;;;13.33;49.97;101669.28;5078165;27;45454;-61
2022/04/28 04:44:28;;;;;;;;;34.75;33.50;;;;;13.38;49.94;101675.28;5077400;27;45521;-61
2022/04/28 04:46:53;;;;;;;;;39.00;35.75;;;;;13.37;49.48;101668.28;5077712;27;45567;-62
2022/04/28 04:49:19;;;;;;;;;37.75;34.25;;;;;13.27;50.18;101665.03;5076605;28;45493;-62
2022/04/28 04:51:44;;;;;;;;;35.00;33.50;;;;;13.19;50.37;101667.88;5077864;27;45617;-62
2022/04/28 04:54:10;;;;;;;;;40.75;35.00;;;;;13.20;50.61;101664.31;5077842;27;47168;-63
2022/04/28 04:56:39;;;;;;;;;39.50;33.75;;;;;13.24;50.20;101676.56;5076362;28;45492;-63
2022/04/28 04:59:04;;;;;;;;;34.75;33.50;;;;;13.28;50.24;101676.50;5077620;27;45424;-62
2022/04/28 05:01:30;;;;;;;;;41.50;35.50;;;;;13.34;50.07;101677.16;5077521;27;45338;-63
2022/04/28 05:03:56;;;;;;;;;39.75;36.00;;;;;13.39;50.27;101683.19;5077244;28;45995;-65
2022/04/28 05:06:21;;;;;;;;;37.75;35.00;;;;;13.39;50.29;101680.53;5077533;27;45510;-62
2022/04/28 05:08:47;;;;;;;;;41.00;35.75;;;;;13.37;50.29;101681.50;5077741;28;45459;-61
2022/04/28 05:11:13;;;;;;;;;39.00;35.00;;;;;13.39;50.27;101680.53;5077154;27;45426;-62
2022/04/28 05:13:38;;;;;;;;;34.25;32.00;;;;;13.45;50.27;101690.06;5077211;27;46005;-63
2022/04/28 05:16:04;;;;;;;;;39.00;34.25;;;;;13.43;49.62;101689.22;5077441;27;45542;-62
2022/04/28 05:18:30;;;;;;;;;39.25;35.00;;;;;13.31;50.29;101682.53;5077557;27;45472;-63
2022/04/28 05:20:56;;;;;;;;;41.50;36.75;;;;;13.24;50.17;101684.47;5077592;27;45472;-63
2022/04/28 05:23:21;;;;;;;;;40.75;35.25;;;;;13.25;50.57;101696.75;5077244;28;45462;-63
2022/04/28 05:25:50;;;;;;;;;40.75;35.75;;;;;13.23;50.31;101698.56;5077211;28;45348;-63
2022/04/28 05:28:15;;;;;;;;;43.25;36.00;;;;;13.14;50.47;101698.00;5075977;28;45547;-62
2022/04/28 05:30:41;;;;;;;;;35.25;33.75;;;;;13.24;51.25;101702.97;5077149;28;45424;-62
2022/04/28 05:33:06;;;;;;;;;41.25;37.00;;;;;13.21;50.99;101707.44;5076910;27;47194;-63
2022/04/28 05:35:37;;;;;;;;;36.75;35.00;;;;;13.25;51.05;101706.47;5077234;27;45456;-62
2022/04/28 05:38:02;;;;;;;;;41.00;36.25;;;;;13.41;50.62;101722.78;5077253;27;45356;-62
2022/04/28 05:40:28;;;;;;;;;44.75;39.50;;;;;13.42;50.48;101713.94;5076725;27;45635;-63
2022/04/28 05:45:46;;;;;;;;;38.25;34.50;;;;;13.48;50.14;101719.03;5076808;27;45360;-62
2022/04/28 05:48:15;;;;;;;;;44.00;38.00;;;;;13.48;50.30;101716.38;5075355;28;45409;-63
2022/04/28 05:50:42;;;;;;;;;38.25;34.75;;;;;13.51;50.50;101720.72;5076837;27;45600;-62
2022/04/28 05:53:09;;;;;;;;;42.50;37.00;;;;;13.48;50.05;101719.03;5076519;27;45381;-62
2022/04/28 05:55:36;;;;;;;;;41.75;35.00;;;;;13.52;50.42;101725.13;5076393;27;45488;-62
2022/04/28 05:58:01;;;;;;;;;41.50;36.25;;;;;13.50;50.24;101730.44;5076772;27;45359;-62
2022/04/28 06:00:27;;;;;;;;;46.50;38.50;;;;;13.54;50.67;101733.84;5076409;27;45530;-62
2022/04/28 06:02:54;;;;;;;;;42.50;37.00;;;;;13.57;49.87;101733.78;5076130;27;45445;-63
2022/04/28 06:05:20;;;;;;;;;46.50;39.00;;;;;13.58;50.60;101733.72;5076541;27;45420;-62
2022/04/28 06:07:45;;;;;;;;;46.75;38.75;;;;;13.63;49.97;101736.22;5076476;27;45743;-62
2022/04/28 06:10:12;;;;;;;;;45.25;39.25;;;;;13.67;50.15;101748.41;5076492;27;45465;-62
2022/04/28 06:12:38;;;;;;;;;43.25;36.50;;;;;13.70;49.97;101743.03;5074990;28;47522;-63
2022/04/28 06:15:04;;;;;;;;;50.75;41.50;;;;;13.69;49.97;101742.19;5076331;27;45458;-63
2022/04/28 06:17:29;;;;;;;;;45.75;39.00;;;;;13.70;50.28;101748.31;5076384;27;45484;-62
2022/04/28 06:19:54;;;;;;;;;50.75;39.50;;;;;13.70;49.97;101740.41;5076101;27;45545;-62
2022/04/28 06:22:20;;;;;;;;;47.50;40.00;;;;;13.70;50.26;101741.28;5076217;27;45446;-63
2022/04/28 06:24:50;;;;;;;;;44.00;38.00;;;;;13.75;49.76;101753.50;5075967;27;53224;-62
2022/04/28 06:27:15;;;;;;;;;41.75;37.25;;;;;13.75;50.14;101746.41;5074793;28;45408;-63
2022/04/28 06:29:41;;;;;;;;;44.50;39.25;;;;;13.75;50.31;101743.78;5074732;28;45524;-61
2022/04/28 06:32:07;;;;;;;;;45.25;39.00;;;;;13.79;50.21;101747.22;5075744;27;46045;-61
2022/04/28 06:34:33;;;;;;;;;48.25;40.50;;;;;13.84;50.35;101756.72;5075965;27;45481;-63
2022/04/28 06:36:58;;;;;;;;;47.00;38.75;;;;;13.79;49.99;101753.34;5075919;27;45455;-63
2022/04/28 06:39:23;;;;;;;;;43.75;38.25;;;;;13.87;50.31;101761.94;5076169;27;45644;-63
2022/04/28 06:41:49;;;;;;;;;48.00;36.75;;;;;13.89;49.79;101756.59;5075788;27;45962;-62
2022/04/28 06:44:14;;;;;;;;;49.25;40.75;;;;;13.92;50.16;101770.59;5075791;28;45418;-62
2022/04/28 06:46:39;;;;;;;;;47.75;40.00;;;;;13.99;49.71;101763.31;5075874;27;45441;-62
2022/04/28 06:49:04;;;;;;;;;43.50;38.50;;;;;14.07;49.80;101765.72;5075792;27;45685;-62
2022/04/28 06:51:31;;;;;;;;;45.00;39.00;;;;;14.15;49.34;101777.78;5075851;27;45925;-63
2022/04/28 06:53:58;;;;;;;;;49.75;41.25;;;;;14.21;49.60;101768.81;5075763;27;45391;-63
2022/04/28 06:56:23;;;;;;;;;41.00;36.50;;;;;14.25;49.50;101778.38;5075713;27;45460;-62
2022/04/28 06:58:49;;;;;;;;;44.50;39.00;;;;;14.29;49.87;101781.78;5074961;27;45344;-62
2022/04/28 07:01:14;;;;;;;;;48.75;39.25;;;;;14.31;48.89;101783.47;5075737;27;45375;-63
2022/04/28 07:03:40;;;;;;;;;47.00;40.00;;;;;14.35;49.01;101778.97;5074814;27;45425;-62
2022/04/28 07:06:05;;;;;;;;;46.50;38.25;;;;;14.37;48.72;101782.41;5075767;27;45456;-63
2022/04/28 07:08:31;;;;;;;;;48.00;40.75;;;;;14.38;49.73;101783.28;5075458;27;45594;-63
2022/04/28 07:10:57;;;;;;;;;50.50;41.75;;;;;14.39;49.27;101775.28;5075640;27;45570;-62
2022/04/28 07:13:22;;;;;;;;;45.25;39.25;;;;;14.48;48.30;101784.69;5075510;27;45465;-62
2022/04/28 07:15:48;;;;;;;;;48.50;41.00;;;;;14.51;48.68;101785.50;5075538;27;45530;-62
2022/04/28 07:18:14;;;;;;;;;42.00;37.50;;;;;14.55;48.20;101788.94;5091112;27;45591;-62
2022/04/28 07:20:40;;;;;;;;;50.25;42.00;;;;;14.57;48.45;101789.75;5075309;27;46184;-62
2022/04/28 07:23:05;;;;;;;;;43.25;38.75;;;;;14.51;48.35;101785.50;5075190;27;45529;-62
2022/04/28 07:25:31;;;;;;;;;49.25;41.25;;;;;14.54;49.29;101782.78;5075664;27;45961;-63
2022/04/28 07:27:58;;;;;;;;;49.25;40.50;;;;;14.58;49.30;101787.03;5076321;27;45415;-62
2022/04/28 07:30:24;;;;;;;;;46.25;40.75;;;;;14.62;49.12;101782.53;5075269;27;46351;-62
2022/04/28 07:32:51;;;;;;;;;49.75;40.50;;;;;14.67;48.52;101788.53;5075001;27;45405;-62
2022/04/28 07:35:18;;;;;;;;;48.25;41.50;;;;;14.73;48.38;101790.09;5075192;28;45464;-62
2022/04/28 07:37:43;;;;;;;;;43.50;37.75;;;;;14.82;48.55;101797.72;5075348;27;45606;-67
2022/04/28 07:40:09;;;;;;;;;49.00;42.75;;;;;14.88;47.92;101794.00;5074892;27;46897;-62
2022/04/28 07:42:34;;;;;;;;;48.00;40.00;;;;;14.91;48.25;101793.91;5075094;27;45474;-62
2022/04/28 07:45:00;;;;;;;;;46.50;40.75;;;;;14.94;47.71;101791.16;5075036;27;45359;-61
2022/04/28 07:47:29;;;;;;;;;45.75;38.25;;;;;15.00;48.50;101789.16;5075157;28;45571;-62
2022/04/28 07:49:55;;;;;;;;;46.25;38.25;;;;;15.07;48.25;101789.81;5074775;27;46215;-62
2022/04/28 07:52:21;;;;;;;;;44.00;38.00;;;;;15.12;47.91;101794.94;5074791;28;45439;-62
2022/04/28 07:54:46;;;;;;;;;47.50;38.25;;;;;15.11;48.10;101787.91;5074984;27;45462;-61
2022/04/28 07:57:11;;;;;;;;;41.00;34.75;;;;;15.19;48.42;101799.13;5074713;27;45563;-62
2022/04/28 07:59:37;;;;;;;;;43.00;38.50;;;;;15.21;48.03;101790.19;5074654;27;46222;-62
2022/04/28 08:02:03;;;;;;;;;40.75;35.75;;;;;15.28;47.86;101797.91;5074357;27;45463;-63
2022/04/28 08:04:29;;;;;;;;;46.00;37.50;;;;;15.28;47.30;101797.91;5074412;27;45433;-63
2022/04/28 08:06:54;;;;;;;;;44.00;35.50;;;;;15.36;47.67;101803.81;5074462;27;45450;-62
2022/04/28 08:09:20;;;;;;;;;48.50;39.00;;;;;15.42;47.10;101804.47;5075201;27;45394;-63
2022/04/28 08:11:45;;;;;;;;;48.25;41.00;;;;;15.46;47.59;101800.75;5078249;27;45511;-62
2022/04/28 08:14:10;;;;;;;;;47.75;38.75;;;;;15.51;46.96;101795.31;5078246;27;45386;-62
2022/04/28 08:16:36;;;;;;;;;36.75;33.75;;;;;15.57;47.75;101794.22;5076902;28;45571;-62
2022/04/28 08:19:02;;;;;;;;;48.50;41.50;;;;;15.63;46.94;101805.44;5077776;27;45477;-62
2022/04/28 08:21:28;;;;;;;;;37.00;34.00;;;;;15.66;46.66;101802.69;5077731;27;45377;-62
2022/04/28 08:23:53;;;;;;;;;46.75;37.75;;;;;15.67;46.44;101812.38;5078013;28;45401;-63
2022/04/28 08:26:18;;;;;;;;;43.50;38.25;;;;;15.72;46.96;101808.72;5077782;27;45579;-62
2022/04/28 08:28:44;;;;;;;;;39.00;35.00;;;;;15.76;47.21;101807.69;5077692;27;46098;-62
2022/04/28 08:31:09;;;;;;;;;39.00;35.00;;;;;15.79;46.58;101812.88;5077563;28;52162;-62
2022/04/28 08:33:34;;;;;;;;;39.25;35.00;;;;;15.84;45.56;101819.72;5076606;28;45403;-62
2022/04/28 08:36:00;;;;;;;;;38.75;35.00;;;;;15.90;46.10;101811.56;5078013;27;45377;-62
2022/04/28 08:38:25;;;;;;;;;41.00;35.00;;;;;15.96;46.56;101806.91;5077602;27;46161;-62
2022/04/28 08:41:00;;;;;;;;;38.50;34.50;;;;;16.01;45.99;101808.50;5077642;27;45399;-62
2022/04/28 08:43:28;;;;;;;;;39.50;35.75;;;;;16.08;45.59;101809.97;5076562;28;45447;-62
2022/04/28 08:48:51;;;;;;;;;37.67;34.00;;;;;16.13;45.89;101800.03;5077487;28;45457;-62
2022/04/28 08:51:18;;;;;;;;;32.00;29.67;;;;;16.25;45.51;101813.75;5077417;27;45429;-61
2022/04/28 08:53:47;;;;;;;;;32.00;30.00;;;;;16.29;44.85;101805.59;5077446;27;45431;-62
2022/04/28 08:56:14;;;;;;;;;32.00;31.50;;;;;16.34;45.39;101808.06;5077337;27;45464;-62
2022/04/28 08:58:39;;;;;;;;;33.00;32.00;;;;;16.37;45.05;101794.69;5077536;27;45433;-62
2022/04/28 09:01:04;;;;;;;;;36.33;34.33;;;;;16.37;44.85;101791.16;5077253;27;45443;-62
2022/04/28 09:03:30;;;;;;;;;32.67;30.67;;;;;16.33;44.80;101791.28;5075986;28;45597;-62
2022/04/28 09:05:56;;;;;;;;;36.33;31.33;;;;;16.37;45.08;101800.00;5077508;27;45418;-62
2022/04/28 09:08:21;;;;;;;;;30.33;30.33;;;;;16.40;44.96;101789.22;5077058;27;45347;-62
2022/04/28 09:10:46;;;;;;;;;36.00;32.00;;;;;16.41;44.96;101790.94;5077240;27;45320;-62
2022/04/28 09:15:56;;;;;;;;;31.00;29.00;;;;;16.47;44.32;101797.81;5077654;28;45449;-61
2022/04/28 09:18:22;;;;;;;;;34.00;31.00;;;;;16.46;44.73;101791.63;5076899;27;45858;-63
2022/04/28 09:20:48;;;;;;;;;31.33;30.00;;;;;16.48;43.91;101781.81;5076345;27;45374;-62
2022/04/28 09:23:15;;;;;;;;;30.67;30.00;;;;;16.52;44.08;101779.88;5076970;27;45396;-62
2022/04/28 09:25:42;;;;;;;;;30.67;29.33;;;;;16.52;44.15;101791.41;5077030;27;45450;-63
2022/04/28 09:28:09;;;;;;;;;34.00;31.67;;;;;16.54;44.39;101784.22;5076731;27;46157;-61
2022/04/28 09:30:47;;;;;;;;;31.33;30.33;;;;;16.57;44.71;101783.22;5076836;28;45572;-62
2022/04/28 09:33:14;;;;;;;;;28.67;27.00;;;;;16.57;43.64;101775.25;5076947;27;45354;-62
2022/04/28 09:35:51;;;;;;;;;30.67;28.67;;;;;16.55;43.85;101772.69;5076727;27;45411;-62
2022/04/28 09:38:17;;;;;;;;;29.67;26.67;;;;;16.63;43.66;101787.41;5076792;27;45499;-63
2022/04/28 09:43:29;;;;;;;;;29.00;27.67;;;;;16.66;44.36;101784.66;5076641;28;45498;-63
2022/04/28 09:45:55;;;;;;;;;33.33;30.00;;;;;16.72;44.17;101797.66;5076655;27;45300;-62
2022/04/28 09:48:21;;;;;;;;;30.33;28.33;;;;;16.76;44.00;101794.84;5076456;27;46175;-63
2022/04/28 09:50:48;;;;;;;;;32.00;31.00;;;;;16.83;43.95;101790.13;5076457;28;45406;-62
2022/04/28 09:53:15;;;;;;;;;29.00;29.00;;;;;16.84;44.08;101778.56;5076857;28;45406;-62
2022/04/28 09:55:42;;;;;;;;;26.00;25.33;;;;;16.98;43.86;101789.50;5076357;28;45428;-68
2022/04/28 09:58:09;;;;;;;;;27.33;26.00;;;;;17.04;44.30;101771.56;5076277;27;45421;-62
2022/04/28 10:00:35;;;;;;;;;33.33;32.33;;;;;17.10;44.15;101771.28;5076490;27;45588;-63
2022/04/28 10:03:04;;;;;;;;;27.67;27.67;;;;;17.16;43.90;101781.63;5075843;27;45471;-62
2022/04/28 10:05:29;;;;;;;;;26.33;26.00;;;;;17.21;43.22;101780.50;5076361;27;45521;-63
2022/04/28 10:07:56;;;;;;;;;25.00;25.00;;;;;17.27;43.72;101776.69;5075860;27;46281;-62
2022/04/28 10:10:23;;;;;;;;;29.00;25.00;;;;;17.31;43.09;101774.78;5076121;27;45457;-61
2022/04/28 10:12:48;;;;;;;;;30.33;26.00;;;;;17.37;42.76;101774.50;5076106;28;45371;-61
2022/04/28 10:15:15;;;;;;;;;26.33;25.67;;;;;17.40;42.84;101775.22;5076032;27;45613;-62
2022/04/28 10:17:46;;;;;;;;;25.67;25.00;;;;;17.43;42.34;101768.91;5075726;28;46000;-62
2022/04/28 10:20:18;;;;;;;;;25.33;25.33;;;;;17.50;42.13;101774.81;5075887;27;45492;-62
2022/04/28 10:22:46;;;;;;;;;34.33;31.33;;;;;17.53;41.41;101769.34;5075990;28;45315;-61
2022/04/28 10:33:38;;;;;;;;;26.00;24.00;;;;;17.67;41.67;101751.81;5074411;28;45632;-62
2022/04/28 10:36:04;;;;;;;;;22.67;21.67;;;;;17.76;41.74;101749.66;5075848;27;45434;-62
2022/04/28 10:38:38;;;;;;;;;24.00;21.00;;;;;17.83;41.54;101754.66;5075444;27;45487;-62
2022/04/28 10:41:08;;;;;;;;;23.67;23.67;;;;;17.91;41.48;101748.09;5075784;27;45476;-62
2022/04/28 10:43:34;;;;;;;;;21.00;20.00;;;;;17.97;40.60;101748.66;5075558;27;45558;-62
2022/04/28 10:46:08;;;;;;;;;21.33;20.67;;;;;18.03;40.50;101752.84;5075684;28;45500;-62
2022/04/28 10:48:35;;;;;;;;;24.33;20.67;;;;;18.07;40.47;101749.94;5075489;28;45374;-62
2022/04/28 10:51:11;;;;;;;;;19.67;19.67;;;;;18.12;40.07;101739.09;5075461;27;45412;-62
2022/04/28 10:53:55;;;;;;;;;20.00;20.00;;;;;18.13;39.65;101735.47;5075473;28;45378;-62
2022/04/28 10:56:22;;;;;;;;;19.00;18.33;;;;;18.15;39.99;101738.94;5075476;27;45391;-62
2022/04/28 10:58:48;;;;;;;;;37.67;34.00;;;;;18.20;39.00;101738.72;5075003;27;45457;-63
2022/04/28 11:01:28;;;;;;;;;19.33;18.00;;;;;18.18;38.05;101733.44;5075261;27;45493;-62
2022/04/28 11:04:01;;;;;;;;;16.00;16.00;;;;;18.16;38.66;101730.03;5091133;27;45398;-62
2022/04/28 11:06:32;;;;;;;;;19.67;18.67;;;;;18.17;36.91;101734.41;5075487;27;45448;-64
2022/04/28 11:09:00;;;;;;;;;17.00;15.00;;;;;18.19;36.78;101740.53;5074841;27;46519;-63
2022/04/28 11:11:29;;;;;;;;;12.00;12.00;;;;;18.18;36.55;101733.44;5074936;28;45503;-62
2022/04/28 11:13:59;;;;;;;;;12.67;12.67;;;;;18.20;36.26;101739.56;5073687;28;45406;-62
2022/04/28 11:16:27;;;;;;;;;13.00;13.00;;;;;18.21;35.51;101735.97;5075189;28;45500;-62
2022/04/28 11:18:54;;;;;;;;;13.67;12.33;;;;;18.28;35.40;101741.88;5074848;27;45428;-62
2022/04/28 11:21:21;;;;;;;;;11.00;11.00;;;;;18.33;35.70;101732.69;5074840;27;45398;-63
2022/04/28 11:23:48;;;;;;;;;13.00;12.00;;;;;18.41;34.74;101732.31;5075162;28;45576;-63
2022/04/28 11:26:14;;;;;;;;;11.33;11.00;;;;;18.50;35.30;101747.84;5075066;27;45575;-62
2022/04/28 11:28:41;;;;;;;;;12.33;12.00;;;;;18.59;34.76;101741.22;5075027;27;45487;-62
2022/04/28 11:31:18;;;;;;;;;14.33;13.33;;;;;18.65;34.68;101740.88;5075080;27;45492;-63
2022/04/28 11:33:45;;;;;;;;;12.67;12.00;;;;;18.68;34.77;101740.72;5075221;27;45323;-62
2022/04/28 11:36:15;;;;;;;;;15.00;14.00;;;;;18.73;34.55;101748.50;5075094;27;45490;-62